Fort Severn, Canada
Current Conditions -  °F | °C
As of 2:00 AM on Wednesday 22 Oct 2014 (Local Time) from CYER Reporting Station
Clear Clear  
Wind Chill: 30°   Ceiling: Unl
Heat Index: 39°   Visibility: 9mi
Dew Point: 34°   Wind: 17mph
Humidity: 81%   Direction: 210°SSW
Pressure: 29.86"   Gusts: 26mph
Location:  55.98°N, 87.65°W
Report Text: CYER 220600Z AUTO 21015G23KT 9SM CLR 04/01 A2986 RMK SLP112
Loading
Personal Weather Stations






























Interactive Weather Map New forecast layout! Learn more

10-Day Weather Forecast

Advertisements
Track Severe Weather on mobile